Flight Track Log - Related Links

Times and Time Zones

All times are in EDT time to prevent confusion due to time zone crossing. See the UPS1214 flight status page for this flight to view local times or setup timezone preferences in your user account.

Time Position Orientation Groundspeed Altitude Reporting Facility
EDT Latitude Longitude Course Direction KTS MPH feet Rate Location/Type
Wed 04:46:56 AM 38.1333 -85.7167 104° East 180 207 2,900  Level Louisville TRACON
Wed 04:47:56 AM 38.0806 -85.6950 162° South 235 270 5,200 3,174 Climbing Indianapolis Center
Wed 04:48:57 AM 38.0506 -85.6139 115° Southeast 275 316 9,300 3,246 Climbing Indianapolis Center
Wed 04:49:58 AM 38.0453 -85.5161 94° East 281 323 11,800 2,182 Climbing Indianapolis Center
Wed 04:50:58 AM 38.0361 -85.3844 95° East 368 423 13,700 2,380 Climbing Indianapolis Center
Wed 04:51:59 AM 38.0531 -85.2392 82° East 423 487 16,600 3,098 Climbing Indianapolis Center
Wed 04:52:00 AM 38.0358 -84.9454 104° East  Level FlightAware
Wed 04:53:00 AM 38.1069 -85.0625 69° East 458 527 20,000  Level Indianapolis Center
Wed 04:54:01 AM 38.1569 -84.9044 68° East 477 549 22,700 1,537 Climbing Indianapolis Center
Wed 04:55:01 AM 38.2064 -84.7408 69° East 490 564 23,100 893 Climbing Indianapolis Center
Wed 04:56:02 AM 38.2550 -84.5781 69° East 489 563 24,500 1,918 Climbing Indianapolis Center
Wed 04:57:03 AM 38.3069 -84.4064 69° East 515 593 27,000 2,754 Climbing Indianapolis Center
Wed 04:58:04 AM 38.3569 -84.2358 69° East 514 592 30,100 1,983 Climbing Indianapolis Center
Wed 04:59:04 AM 38.4067 -84.0692 69° East 505 581 31,000 446 Climbing Indianapolis Center
Wed 05:00:05 AM 38.4550 -83.9061 69° East 494 568 31,000  Level Indianapolis Center
Wed 05:01:06 AM 38.5033 -83.7408 69° East 494 568 31,000  Level Indianapolis Center
Wed 05:02:07 AM 38.5517 -83.5744 70° East 496 571 31,000  Level Indianapolis Center
Wed 05:03:07 AM 38.5983 -83.4106 70° East 493 567 31,000  Level Indianapolis Center
Wed 05:04:08 AM 38.6458 -83.2467 70° East 490 564 31,000  Level Indianapolis Center
Wed 05:05:09 AM 38.6939 -83.0783 70° East 494 568 31,000  Level Indianapolis Center
Wed 05:06:10 AM 38.7403 -82.9144 70° East 490 564 31,000  Level Indianapolis Center
Wed 05:07:11 AM 38.7864 -82.7514 70° East 486 559 31,000  Level Indianapolis Center
Wed 05:08:11 AM 38.8322 -82.5897 70° East 483 556 31,000  Level Indianapolis Center
Wed 05:09:12 AM 38.8772 -82.4267 70° East 482 555 31,000  Level Indianapolis Center
Wed 05:10:13 AM 38.9225 -82.2644 70° East 481 554 31,000  Level Indianapolis Center
Wed 05:11:13 AM 38.9675 -82.0992 71° East 486 559 31,000  Level Indianapolis Center
Wed 05:12:14 AM 39.0139 -81.9336 70° East 487 560 31,000  Level Indianapolis Center
Wed 05:13:15 AM 39.0586 -81.7669 71° East 488 562 31,000  Level Indianapolis Center
Wed 05:14:16 AM 39.1039 -81.6008 71° East 488 562 31,000  Level Indianapolis Center
Wed 05:15:16 AM 39.1308 -81.4294 78° East 491 565 31,000  Level Indianapolis Center
Wed 05:16:17 AM 39.1475 -81.2536 83° East 491 565 31,000  Level Indianapolis Center
Wed 05:17:18 AM 39.1633 -81.0806 83° East 486 559 31,000  Level Indianapolis Center
Wed 05:18:19 AM 39.1769 -80.9078 84° East 484 557 31,000  Level Indianapolis Center
Wed 05:19:19 AM 39.1906 -80.7347 84° East 482 555 31,000  Level Indianapolis Center
Wed 05:20:20 AM 39.2042 -80.5617 84° East 485 558 31,000  Level Indianapolis Center
Wed 05:21:21 AM 39.2175 -80.3889 84° East 485 558 31,000  Level Indianapolis Center
Wed 05:22:02 AM 39.2311 -80.2675 82° East 479 551 31,000  Level Washington Center
Wed 05:23:03 AM 39.2439 -80.0969 84° East 479 551 31,000  Level Washington Center
Wed 05:24:02 AM 39.2564 -79.9261 85° East 479 551 31,000  Level Washington Center
Wed 05:25:01 AM 39.2708 -79.7553 84° East 479 551 31,000  Level Washington Center
Wed 05:26:01 AM 39.2808 -79.5842 86° East 479 551 31,000  Level Washington Center
Wed 05:27:01 AM 39.2947 -79.4106 84° East 479 551 31,000  Level Washington Center
Wed 05:28:01 AM 39.3028 -79.2206 87° East 479 551 31,000  Level Washington Center
Wed 05:29:01 AM 39.3161 -79.0469 84° East 479 551 31,000 -976 Level Washington Center
Wed 05:30:04 AM 39.3250 -78.8808 86° East 473 544 29,000 -3,074 Descending Washington Center
Wed 05:31:02 AM 39.3358 -78.7069 85° East 473 544 24,800 -3,744 Descending Washington Center
Wed 05:32:01 AM 39.3467 -78.5303 85° East 479 551 21,700 -3,100 Descending Washington Center
Wed 05:33:02 AM 39.3567 -78.3669 85° East 479 551 18,600 -2,951 Descending Washington Center
Wed 05:34:03 AM 39.3664 -78.2089 85° East 458 527 15,700 -1,736 Descending Washington Center
Wed 05:35:03 AM 39.3739 -78.0589 86° East 430 495 15,100 -347 Descending Washington Center
Wed 05:36:04 AM 39.3869 -77.9250 83° East 422 486 15,000 -500 Descending Washington Center
Wed 05:37:03 AM 39.4042 -77.7778 81° East 416 479 14,100 -1,765 Descending Washington Center
Wed 05:38:03 AM 39.4169 -77.6439 83° East 404 465 11,500 -1,550 Descending Washington Center
Wed 05:39:03 AM 39.4294 -77.5153 83° East 377 434 11,000 -250 Descending Washington Center
Wed 05:40:03 AM 39.4394 -77.4108 83° East 336 387 11,000 -673 Level Washington Center
Wed 05:40:50 AM 39.4333 -77.3167 95° East 283 326 9,800 -1,723 Descending Potomac TRACON
Wed 05:41:44 AM 39.4167 -77.2500 108° East 277 319 8,100 -900 Descending Potomac TRACON
Wed 05:42:50 AM 39.3500 -77.1667 136° Southeast 271 312 8,000 -1,050 Descending Potomac TRACON
Wed 05:43:44 AM 39.3167 -77.1000 123° Southeast 258 297 6,000 -1,950 Descending Potomac TRACON
Wed 05:44:50 AM 39.2667 -77.0333 134° Southeast 244 281 4,100 -1,381 Descending Potomac TRACON
Wed 05:45:50 AM 39.2167 -76.9667 134° Southeast 224 258 3,100 -579 Descending Potomac TRACON
Wed 05:46:44 AM 39.1833 -76.9167 131° Southeast 214 246 3,000 -263 Descending Potomac TRACON
Wed 05:47:44 AM 39.1833 -76.8500 90° East 180 207 2,600 -579 Descending Potomac TRACON
Wed 05:48:38 AM 39.1833 -76.8000 90° East 129 148 1,900 -694 Descending Potomac TRACON
Wed 05:49:45 AM 39.1833 -76.7500 90° East 125 144 1,200 -661 Descending Potomac TRACON
Wed 05:50:45 AM 39.1833 -76.7000 90° East 128 147 500 -700 Descending Potomac TRACON
Wed 05:52:00 AM 39.1667 -76.6667 142° Southeast  Level FlightAware
Wed 05:59:00 AM 39.1754 -76.6683 142° Southeast  Level Estimated
Wed 06:00:00 AM 39.1754 -76.6683 142° Southeast  Level Estimated
Wed 06:01:00 AM 39.1754 -76.6683 142° Southeast  Level Estimated
Wed 06:02:00 AM 39.1754 -76.6683 142° Southeast  Level Estimated
Wed 06:03:00 AM 39.1754 -76.6683 142° Southeast  Level Estimated

Login

Don't have an account? Register now (free) for customized features, flight alerts, and more!